createdAt,value
2022-11-21T00:00:16.512Z,-1.722222
2022-11-21T00:05:16.538Z,-1.703704
2022-11-21T00:10:17.000Z,-1.606481
2022-11-21T00:15:16.589Z,-1.458333
2022-11-21T00:20:16.644Z,-1.314815
2022-11-21T00:25:16.678Z,-1.131944
2022-11-21T00:30:17.048Z,-1.000000
2022-11-21T00:35:16.561Z,-0.881944
2022-11-21T00:40:16.826Z,-0.831019
2022-11-21T00:45:22.697Z,-0.743056
2022-11-21T00:50:16.585Z,-0.768519
2022-11-21T00:55:16.846Z,-0.766667
2022-11-21T01:00:16.547Z,-0.768889
2022-11-21T01:05:16.663Z,-0.745370
2022-11-21T01:10:16.779Z,-0.720000
2022-11-21T01:15:16.620Z,-0.675926
2022-11-21T01:20:16.612Z,-0.606481
2022-11-21T01:25:16.603Z,-0.574074
2022-11-21T01:30:16.548Z,-0.560185
2022-11-21T01:35:16.883Z,-0.497685
2022-11-21T01:40:16.564Z,-0.472222
2022-11-21T01:45:16.667Z,-0.425926
2022-11-21T01:50:16.807Z,-0.380000
2022-11-21T01:55:16.551Z,-0.371111
2022-11-21T02:00:16.662Z,-0.337963
2022-11-21T02:05:16.654Z,-0.317130
2022-11-21T02:10:16.933Z,-0.321759
2022-11-21T02:15:16.778Z,-0.284722
2022-11-21T02:20:16.600Z,-0.206019
2022-11-21T02:25:16.611Z,-0.173611
2022-11-21T02:30:16.546Z,-0.175926
2022-11-21T02:35:19.041Z,-0.166667
2022-11-21T02:40:19.035Z,-0.122222
2022-11-21T02:45:19.399Z,-0.074074
2022-11-21T02:50:19.462Z,-0.046296
2022-11-21T02:55:19.519Z,-0.004630
2022-11-21T03:00:19.164Z,0.011574
2022-11-21T03:05:19.135Z,0.050926
2022-11-21T03:10:19.219Z,0.034722
2022-11-21T03:15:19.298Z,0.097222
2022-11-21T03:20:18.990Z,0.148148
2022-11-21T03:25:19.177Z,0.166667
2022-11-21T03:30:18.982Z,0.180556
2022-11-21T03:35:19.045Z,0.175926
2022-11-21T03:40:19.075Z,0.194444
2022-11-21T03:45:19.074Z,0.222222
2022-11-21T03:50:19.005Z,0.222222
2022-11-21T03:55:19.000Z,0.224537
2022-11-21T04:00:18.986Z,0.231481
2022-11-21T04:05:19.072Z,0.277778
2022-11-21T04:10:19.296Z,0.321759
2022-11-21T04:15:18.998Z,0.324074
2022-11-21T04:20:18.988Z,0.333333
2022-11-21T04:25:19.130Z,0.342593
2022-11-21T04:30:19.242Z,0.333333
2022-11-21T04:35:19.151Z,0.319444
2022-11-21T04:40:19.106Z,0.307870
2022-11-21T04:45:19.229Z,0.307870
2022-11-21T04:50:19.225Z,0.289352
2022-11-21T04:55:19.192Z,0.277778
2022-11-21T05:00:23.914Z,0.277778
2022-11-21T05:05:19.090Z,0.291667
2022-11-21T05:10:19.027Z,0.314815
2022-11-21T05:15:24.242Z,0.312500
2022-11-21T05:20:19.307Z,0.326389
2022-11-21T05:25:18.968Z,0.335648
2022-11-21T05:30:19.005Z,0.333333
2022-11-21T05:35:18.989Z,0.314815
2022-11-21T05:40:19.003Z,0.289352
2022-11-21T05:45:18.979Z,0.331019
2022-11-21T05:50:19.357Z,0.449074
2022-11-21T05:55:19.082Z,0.761574
2022-11-21T06:00:19.163Z,0.993056
2022-11-21T06:05:19.169Z,0.995370
2022-11-21T06:10:18.949Z,0.925926
2022-11-21T06:15:19.105Z,0.854167
2022-11-21T06:20:19.178Z,0.819444
2022-11-21T06:25:19.221Z,0.777778
2022-11-21T06:30:22.378Z,0.750000
2022-11-21T06:35:16.599Z,0.680556
2022-11-21T06:40:16.474Z,0.622685
2022-11-21T06:45:16.619Z,0.584444
2022-11-21T06:50:16.515Z,0.539352
2022-11-21T06:55:16.977Z,0.446759
2022-11-21T07:00:16.679Z,0.391111
2022-11-21T07:05:16.544Z,0.347222
2022-11-21T07:10:16.613Z,0.296296
2022-11-21T07:15:16.470Z,0.243056
2022-11-21T07:20:16.751Z,0.136574
2022-11-21T07:25:16.424Z,0.040000
2022-11-21T07:30:16.478Z,-0.106667
2022-11-21T07:35:16.451Z,-0.303241
2022-11-21T07:40:16.480Z,-0.456019
2022-11-21T07:45:16.457Z,-0.504444
2022-11-21T07:50:16.434Z,-0.560185
2022-11-21T07:55:16.425Z,-0.606667
2022-11-21T08:00:16.448Z,-0.585648
2022-11-21T08:05:16.415Z,-0.588889
2022-11-21T08:10:16.436Z,-0.583333
2022-11-21T08:15:16.429Z,-0.562500
2022-11-21T08:20:16.464Z,-0.564815
2022-11-21T08:25:16.395Z,-0.540000
2022-11-21T08:30:16.508Z,-0.527778
2022-11-21T08:35:16.465Z,-0.497685
2022-11-21T08:40:16.379Z,-0.466667
2022-11-21T08:45:16.358Z,-0.437500
2022-11-21T08:50:16.418Z,-0.391204
2022-11-21T08:55:16.510Z,-0.388889
2022-11-21T09:00:16.433Z,-0.386574
2022-11-21T09:05:16.442Z,-0.381944
2022-11-21T09:10:16.374Z,-0.347222
2022-11-21T09:15:16.431Z,-0.333333
2022-11-21T09:20:16.413Z,-0.333333
2022-11-21T09:25:16.557Z,-0.344907
2022-11-21T09:30:16.675Z,-0.361111
2022-11-21T09:35:16.829Z,-0.388889
2022-11-21T09:40:18.952Z,-0.458333
2022-11-21T09:45:19.025Z,-0.491111
2022-11-21T09:50:19.004Z,-0.476852
2022-11-21T09:55:18.969Z,-0.467593
2022-11-21T10:00:18.902Z,-0.493056
2022-11-21T10:05:19.524Z,-0.488426
2022-11-21T10:10:19.603Z,-0.439815
2022-11-21T10:15:18.934Z,-0.442130
2022-11-21T10:20:19.013Z,-0.435185
2022-11-21T10:25:21.705Z,-0.432870
2022-11-21T10:30:18.973Z,-0.432870
2022-11-21T10:35:18.859Z,-0.393519
2022-11-21T10:40:18.890Z,-0.402778
2022-11-21T10:45:18.860Z,-0.386574
2022-11-21T10:50:19.096Z,-0.349537
2022-11-21T10:55:18.847Z,-0.252315
2022-11-21T11:00:19.070Z,-0.273148
2022-11-21T11:05:18.914Z,-0.331019
2022-11-21T11:10:22.896Z,-0.328704
2022-11-21T11:15:18.944Z,-0.333333
2022-11-21T11:20:18.908Z,-0.266204
2022-11-21T11:25:18.851Z,-0.247685
2022-11-21T11:30:18.925Z,-0.203704
2022-11-21T11:35:18.955Z,-0.078704
2022-11-21T11:40:18.782Z,-0.083333
2022-11-21T11:45:18.895Z,-0.024444
2022-11-21T11:50:18.903Z,-0.064815
2022-11-21T11:55:18.915Z,-0.039352
2022-11-21T12:00:19.011Z,-0.002315
2022-11-21T12:05:19.309Z,0.053241
2022-11-21T12:10:19.116Z,0.064815
2022-11-21T12:15:19.240Z,-0.002315
2022-11-21T12:20:19.012Z,0.037037
2022-11-21T12:25:18.961Z,0.097222
2022-11-21T12:30:18.956Z,0.150463
2022-11-21T12:35:18.899Z,0.118056
2022-11-21T12:40:19.107Z,0.092593
2022-11-21T12:45:16.342Z,0.046296
2022-11-21T12:50:16.656Z,0.048611
2022-11-21T12:55:16.399Z,0.060185
2022-11-21T13:00:16.332Z,0.071111
2022-11-21T13:05:16.471Z,0.108889
2022-11-21T13:10:16.552Z,0.157778
2022-11-21T13:15:16.402Z,0.166667
2022-11-21T13:20:16.402Z,0.222222
2022-11-21T13:25:16.466Z,0.233796
2022-11-21T13:30:16.666Z,0.259259
2022-11-21T13:35:16.421Z,0.296296
2022-11-21T13:40:16.425Z,0.324074
2022-11-21T13:45:16.357Z,0.307870
2022-11-21T13:50:16.398Z,0.333333
2022-11-21T13:55:16.274Z,0.384259
2022-11-21T14:00:19.839Z,0.432870
2022-11-21T14:05:16.419Z,0.393519
2022-11-21T14:10:16.358Z,0.391204
2022-11-21T14:15:16.394Z,0.400463
2022-11-21T14:20:16.433Z,0.409722
2022-11-21T14:25:16.637Z,0.386574
2022-11-21T14:30:16.392Z,0.300926
2022-11-21T14:35:16.605Z,0.164352
2022-11-21T14:40:16.339Z,0.106481
2022-11-21T14:45:16.347Z,-0.013889
2022-11-21T14:50:16.299Z,-0.025463
2022-11-21T14:55:30.189Z,-0.034722
2022-11-21T15:00:43.235Z,-0.023148
2022-11-21T15:05:29.028Z,0.030093
2022-11-21T15:10:32.159Z,0.055556
2022-11-21T15:15:16.318Z,0.081019
2022-11-21T15:20:16.505Z,0.055556
2022-11-21T15:25:16.357Z,0.000000
2022-11-21T15:30:16.305Z,-0.002315
2022-11-21T15:35:16.307Z,-0.013889
2022-11-21T15:40:16.353Z,0.027778
2022-11-21T15:45:20.015Z,0.055556
2022-11-21T15:46:21.680Z,0.055556
2022-11-21T15:50:16.253Z,0.055556
2022-11-21T15:55:16.324Z,0.055556
2022-11-21T16:00:16.526Z,0.062500
2022-11-21T16:05:16.283Z,0.106481
2022-11-21T16:10:22.659Z,0.111111
2022-11-21T16:15:16.310Z,0.125000
2022-11-21T16:20:16.366Z,0.117778
2022-11-21T16:25:16.699Z,0.057870
2022-11-21T16:30:16.408Z,0.057778
2022-11-21T16:35:16.237Z,0.099537
2022-11-21T16:40:16.350Z,0.115741
2022-11-21T16:45:16.633Z,0.155093
2022-11-21T16:50:16.686Z,0.168889
2022-11-21T16:55:16.245Z,0.148148
2022-11-21T17:00:16.330Z,0.115556
2022-11-21T17:05:16.243Z,0.090278
2022-11-21T17:10:16.721Z,0.004444
2022-11-21T17:15:16.398Z,-0.046296
2022-11-21T17:20:16.363Z,-0.083333
2022-11-21T17:25:16.312Z,-0.041667
2022-11-21T17:30:16.298Z,-0.097778
2022-11-21T17:35:16.335Z,-0.171296
2022-11-21T17:40:16.294Z,-0.300000
2022-11-21T17:45:16.267Z,-0.486111
2022-11-21T17:50:16.329Z,-0.761574
2022-11-21T17:55:16.245Z,-0.678241
2022-11-21T18:00:16.363Z,-0.944444
2022-11-21T18:05:16.453Z,-1.085648
2022-11-21T18:10:41.374Z,-1.314815
2022-11-21T18:15:16.188Z,-1.430556
2022-11-21T18:20:16.250Z,-1.402778
2022-11-21T18:25:16.281Z,-1.537037
2022-11-21T18:30:16.236Z,-1.620370
2022-11-21T18:35:16.365Z,-1.678241
2022-11-21T18:40:16.232Z,-1.613426
2022-11-21T18:45:16.236Z,-1.641204
2022-11-21T18:50:16.281Z,-1.506667
2022-11-21T18:55:16.391Z,-1.488426
2022-11-21T19:00:16.819Z,-1.595556
2022-11-21T19:05:20.475Z,-1.548611
2022-11-21T19:10:41.321Z,-1.580000
2022-11-21T19:15:16.262Z,-1.597222
2022-11-21T19:20:16.353Z,-1.775463
2022-11-21T19:25:16.205Z,-1.854167
2022-11-21T19:30:16.354Z,-1.828889
2022-11-21T19:35:16.539Z,-1.756944
2022-11-21T19:40:16.526Z,-1.828704
2022-11-21T19:45:16.592Z,-1.858796
2022-11-21T19:50:16.273Z,-1.854167
2022-11-21T19:55:16.291Z,-2.048611
2022-11-21T20:00:16.212Z,-2.171111
2022-11-21T20:05:16.524Z,-2.310185
2022-11-21T20:10:16.269Z,-2.553241
2022-11-21T20:15:16.289Z,-2.553241
2022-11-21T20:20:16.838Z,-2.664352
2022-11-21T20:25:16.241Z,-2.775463
2022-11-21T20:30:16.251Z,-2.733333
2022-11-21T20:35:16.260Z,-2.696759
2022-11-21T20:40:16.437Z,-2.715556
2022-11-21T20:46:21.532Z,-2.770833
2022-11-21T20:50:38.516Z,-2.863426
2022-11-21T20:55:16.232Z,-2.902778
2022-11-21T21:00:16.178Z,-2.916667
2022-11-21T21:05:16.254Z,-3.074074
2022-11-21T21:10:16.425Z,-3.124444
2022-11-21T21:15:16.351Z,-3.224537
2022-11-21T21:20:16.420Z,-3.280000
2022-11-21T21:25:16.435Z,-3.354167
2022-11-21T21:30:16.408Z,-3.422222
2022-11-21T21:35:16.193Z,-3.393333
2022-11-21T21:40:16.161Z,-3.333333
2022-11-21T21:45:16.437Z,-3.319444
2022-11-21T21:50:16.318Z,-3.337963
2022-11-21T21:55:16.240Z,-3.342593
2022-11-21T22:00:16.194Z,-3.400463
2022-11-21T22:05:18.695Z,-3.428241
2022-11-21T22:10:18.731Z,-3.475556
2022-11-21T22:15:18.627Z,-3.523148
2022-11-21T22:20:18.675Z,-3.606481
2022-11-21T22:25:18.774Z,-3.706019
2022-11-21T22:30:18.926Z,-3.787037
2022-11-21T22:35:18.586Z,-3.787037
2022-11-21T22:40:18.622Z,-3.745370
2022-11-21T22:45:18.694Z,-3.703704
2022-11-21T22:50:18.813Z,-3.675926
2022-11-21T22:55:18.669Z,-3.692130
2022-11-21T23:00:19.349Z,-3.659722
2022-11-21T23:05:19.097Z,-3.613426
2022-11-21T23:10:18.734Z,-3.583333
2022-11-21T23:15:18.854Z,-3.585648
2022-11-21T23:20:18.799Z,-3.675926
2022-11-21T23:25:18.773Z,-3.706019
2022-11-21T23:30:18.660Z,-3.571759
2022-11-21T23:35:18.764Z,-3.562500
2022-11-21T23:40:18.882Z,-3.513889
2022-11-21T23:45:18.713Z,-3.465278
2022-11-21T23:50:18.684Z,-3.421296
2022-11-21T23:55:18.727Z,-3.652778
